Time;durP1;ratioP1;P1;durP2;ratioP2;P2;SDS_P1;SDS_P2;PMS_P1;PMS_P2;Temp;Humidity;BMP_temperature;BMP_pressure;BME280_temperature;BME280_humidity;BME280_pressure;Samples;Min_cycle;Max_cycle;Signal;HPM_P1;HPM_P2
2024/02/14 00:02:09;;;;;;;2.97;1.92;;;;;;;7.43;100.00;101361.97;5090278;28;20032;-40
2024/02/14 00:04:34;;;;;;;3.93;2.00;;;;;;;7.38;100.00;101358.19;5089741;28;20067;-39
2024/02/14 00:06:59;;;;;;;2.47;1.90;;;;;;;7.38;100.00;101350.97;5079819;28;20460;-39
2024/02/14 00:09:25;;;;;;;3.87;2.20;;;;;;;7.45;100.00;101351.81;5076694;28;20427;-39
2024/02/14 00:11:51;;;;;;;3.88;2.55;;;;;;;7.47;100.00;101349.78;5076028;28;20279;-39
2024/02/14 00:14:16;;;;;;;3.88;2.55;;;;;;;7.42;100.00;101346.84;5075655;28;20033;-40
2024/02/14 00:16:41;;;;;;;2.77;2.20;;;;;;;7.50;100.00;101351.22;5076007;28;20036;-39
2024/02/14 00:19:07;;;;;;;3.23;2.13;;;;;;;7.51;100.00;101341.28;5076790;28;20528;-39
2024/02/14 00:21:34;;;;;;;3.72;2.30;;;;;;;7.53;100.00;101336.56;5076675;28;20364;-40
2024/02/14 00:23:59;;;;;;;;;;;;;;;7.57;100.00;101337.81;5076296;28;20051;-40
2024/02/14 00:26:24;;;;;;;2.80;2.13;;;;;;;7.55;100.00;101340.69;5076301;28;19908;-40
2024/02/14 00:28:50;;;;;;;3.77;2.30;;;;;;;7.58;100.00;101337.63;5076086;28;20040;-40
2024/02/14 00:31:16;;;;;;;3.17;2.27;;;;;;;7.59;100.00;101325.81;5075651;28;20024;-40
2024/02/14 00:33:41;;;;;;;3.45;2.20;;;;;;;7.62;100.00;101336.19;5075452;28;20511;-39
2024/02/14 00:36:06;;;;;;;3.45;2.35;;;;;;;7.63;100.00;101335.16;5075602;28;20035;-39
2024/02/14 00:38:32;;;;;;;4.43;2.80;;;;;;;7.67;100.00;101340.97;5076461;28;20032;-39
2024/02/14 00:40:57;;;;;;;2.57;2.30;;;;;;;7.64;100.00;101333.28;5075597;28;20070;-39
2024/02/14 00:43:23;;;;;;;5.67;2.67;;;;;;;7.68;100.00;101335.38;5075270;28;20016;-40
2024/02/14 00:45:48;;;;;;;4.07;2.63;;;;;;;7.72;100.00;101333.13;5075459;28;20094;-39
2024/02/14 00:48:13;;;;;;;5.37;2.80;;;;;;;7.73;100.00;101330.22;5076271;28;20033;-39
2024/02/14 00:50:39;;;;;;;3.73;2.43;;;;;;;7.69;100.00;101325.44;5075844;28;20726;-39
2024/02/14 00:53:04;;;;;;;5.33;2.50;;;;;;;7.76;100.00;101331.72;5075063;28;20107;-40
2024/02/14 00:55:30;;;;;;;4.00;2.70;;;;;;;7.75;100.00;101316.56;5075653;28;20055;-40
2024/02/14 00:57:55;;;;;;;3.25;2.33;;;;;;;7.75;100.00;101319.25;5075844;28;20024;-40
2024/02/14 01:00:20;;;;;;;3.43;2.73;;;;;;;7.83;100.00;101329.84;5075233;28;20029;-40
2024/02/14 01:02:46;;;;;;;3.88;2.65;;;;;;;7.86;100.00;101324.09;5075188;28;20030;-40
2024/02/14 01:05:11;;;;;;;4.43;3.00;;;;;;;7.89;100.00;101331.75;5074875;28;20090;-41
2024/02/14 01:07:36;;;;;;;3.40;2.57;;;;;;;7.90;100.00;101333.38;5075422;28;20031;-41
2024/02/14 01:10:03;;;;;;;4.10;2.57;;;;;;;7.92;100.00;101325.97;5075353;28;20173;-40
2024/02/14 01:12:29;;;;;;;;;;;;;;;7.97;100.00;101334.25;5075707;28;20079;-40
2024/02/14 01:14:55;;;;;;;3.30;2.63;;;;;;;7.96;100.00;101331.78;5074840;28;20279;-40
2024/02/14 01:17:20;;;;;;;3.75;2.50;;;;;;;7.95;100.00;101325.56;5074476;28;20036;-40
2024/02/14 01:19:46;;;;;;;5.13;3.42;;;;;;;7.98;100.00;101330.53;5075042;28;20032;-40
2024/02/14 01:22:11;;;;;;;3.90;2.93;;;;;;;7.94;100.00;101325.75;5075055;28;20036;-40
2024/02/14 01:24:36;;;;;;;3.90;2.67;;;;;;;8.01;100.00;101329.31;5075599;28;20111;-40
2024/02/14 01:27:03;;;;;;;3.40;3.07;;;;;;;8.04;100.00;101334.28;5074679;28;20029;-40
2024/02/14 01:29:28;;;;;;;;;;;;;;;8.10;100.00;101330.78;5075646;28;20044;-40
2024/02/14 01:31:54;;;;;;;4.67;2.40;;;;;;;8.07;100.00;101333.06;5074614;28;19945;-40
2024/02/14 01:34:20;;;;;;;4.35;3.28;;;;;;;8.11;100.00;101335.13;5074193;28;20781;-40
2024/02/14 01:36:46;;;;;;;4.00;2.90;;;;;;;8.11;100.00;101337.00;5074429;28;20025;-40
2024/02/14 01:39:11;;;;;;;;;;;;;;;8.18;100.00;101340.53;5074684;28;20415;-40
2024/02/14 01:41:38;;;;;;;4.30;3.20;;;;;;;8.16;100.00;101346.13;5074045;28;19908;-40
2024/02/14 01:44:04;;;;;;;4.38;2.92;;;;;;;8.14;100.00;101344.66;5074619;28;20063;-40
2024/02/14 01:46:29;;;;;;;4.72;3.00;;;;;;;8.19;100.00;101334.09;5074274;28;20056;-40
2024/02/14 01:48:55;;;;;;;4.28;3.05;;;;;;;8.21;100.00;101348.22;5075051;28;20028;-40
2024/02/14 01:51:27;;;;;;;4.43;2.88;;;;;;;8.25;100.00;101347.63;5073865;28;20079;-40
2024/02/14 01:53:54;;;;;;;4.13;2.97;;;;;;;8.29;100.00;101341.81;5074957;28;20089;-40
2024/02/14 01:56:19;;;;;;;4.15;2.92;;;;;;;8.31;100.00;101350.53;5074043;28;20036;-40
2024/02/14 01:58:45;;;;;;;5.50;3.30;;;;;;;8.33;100.00;101348.44;5073880;28;20399;-40
2024/02/14 02:01:11;;;;;;;3.17;2.80;;;;;;;8.35;100.00;101347.22;5074588;28;20033;-40
2024/02/14 02:03:37;;;;;;;5.85;2.95;;;;;;;8.35;100.00;101341.84;5074776;28;20032;-40
2024/02/14 02:06:05;;;;;;;3.42;2.70;;;;;;;8.38;100.00;101341.44;5074695;28;20376;-39
2024/02/14 02:08:32;;;;;;;4.53;2.80;;;;;;;8.38;100.00;101348.69;5073957;28;20024;-40
2024/02/14 02:10:57;;;;;;;4.68;2.60;;;;;;;8.38;100.00;101346.00;5073751;28;20031;-40
2024/02/14 02:13:23;;;;;;;4.18;2.70;;;;;;;8.39;100.00;101343.09;5073577;28;20025;-40
2024/02/14 02:15:49;;;;;;;4.47;2.92;;;;;;;8.40;100.00;101352.88;5073391;28;20068;-40
2024/02/14 02:18:14;;;;;;;6.35;3.13;;;;;;;8.40;100.00;101344.78;5074321;28;20375;-40
2024/02/14 02:20:42;;;;;;;6.80;3.38;;;;;;;8.40;100.00;101360.13;5074211;28;20028;-40
2024/02/14 02:23:08;;;;;;;3.20;2.45;;;;;;;8.40;100.00;101342.09;5074203;28;20024;-40
2024/02/14 02:25:34;;;;;;;4.45;3.10;;;;;;;8.35;100.00;101347.22;5073664;28;20040;-40
2024/02/14 02:28:00;;;;;;;6.03;2.83;;;;;;;8.37;100.00;101353.25;5073350;28;20086;-40
2024/02/14 02:30:25;;;;;;;5.80;3.17;;;;;;;8.38;100.00;101349.53;5073661;28;20305;-39
2024/02/14 02:32:51;;;;;;;3.90;3.50;;;;;;;8.38;100.00;101346.84;5074075;28;20024;-39
2024/02/14 02:35:20;;;;;;;4.80;2.95;;;;;;;8.37;100.00;101338.97;5074029;28;20116;-40
2024/02/14 02:37:47;;;;;;;3.72;3.20;;;;;;;8.36;100.00;101340.84;5073433;28;20035;-39
2024/02/14 02:40:14;;;;;;;4.88;2.85;;;;;;;8.31;100.00;101337.88;5073480;28;20071;-39
2024/02/14 02:42:40;;;;;;;4.80;3.20;;;;;;;8.37;100.00;101355.97;5073441;28;20056;-39
2024/02/14 02:45:05;;;;;;;6.00;2.95;;;;;;;8.38;100.00;101346.84;5073173;28;20116;-39
2024/02/14 02:47:34;;;;;;;4.50;3.25;;;;;;;8.37;100.00;101345.19;5073659;28;20098;-39
2024/02/14 02:50:01;;;;;;;3.97;2.90;;;;;;;8.37;100.00;101334.41;5073965;28;20033;-39
2024/02/14 02:52:27;;;;;;;4.45;3.10;;;;;;;8.38;100.00;101337.91;5073618;28;20032;-39
2024/02/14 02:54:53;;;;;;;5.63;3.53;;;;;;;8.39;100.00;101340.41;5073645;28;20080;-39
2024/02/14 02:57:19;;;;;;;4.22;3.72;;;;;;;8.40;100.00;101330.47;5073918;28;20059;-39
2024/02/14 02:59:45;;;;;;;5.00;3.35;;;;;;;8.39;100.00;101323.41;5073096;28;20025;-39
2024/02/14 03:02:11;;;;;;;6.95;3.40;;;;;;;8.38;100.00;101319.06;5073511;28;20025;-39
2024/02/14 03:04:38;;;;;;;4.82;3.30;;;;;;;8.44;100.00;101337.94;5073577;28;20043;-39
2024/02/14 03:07:06;;;;;;;3.97;2.97;;;;;;;8.46;100.00;101329.66;5073180;28;20029;-39
2024/02/14 03:09:32;;;;;;;5.85;3.58;;;;;;;8.44;100.00;101327.16;5073810;28;20381;-39
2024/02/14 03:11:57;;;;;;;5.30;3.15;;;;;;;8.47;100.00;101324.03;5073679;28;20039;-40
2024/02/14 03:14:23;;;;;;;4.43;3.40;;;;;;;8.48;100.00;101336.47;5073305;28;20067;-39
2024/02/14 03:16:48;;;;;;;5.43;3.58;;;;;;;8.43;100.00;101333.56;5073149;28;20049;-39
2024/02/14 03:19:14;;;;;;;5.20;3.42;;;;;;;8.52;100.00;101339.59;5073145;28;20036;-39
2024/02/14 03:21:39;;;;;;;3.80;3.22;;;;;;;8.55;100.00;101341.06;5073128;28;20032;-39
2024/02/14 03:24:05;;;;;;;4.33;3.40;;;;;;;8.57;100.00;101345.22;5073322;28;20037;-40
2024/02/14 03:26:34;;;;;;;3.83;3.17;;;;;;;8.60;100.00;101352.06;5073369;28;20274;-40
2024/02/14 03:29:06;;;;;;;4.70;3.60;;;;;;;8.61;100.00;101346.47;5073699;28;20051;-40
2024/02/14 03:31:31;;;;;;;3.40;3.10;;;;;;;8.62;100.00;101358.91;5072989;28;20054;-40
2024/02/14 03:33:57;;;;;;;6.75;3.65;;;;;;;8.64;100.00;101347.94;5073619;28;20092;-40
2024/02/14 03:36:24;;;;;;;4.47;3.57;;;;;;;8.58;100.00;101338.78;5072810;28;20067;-39
2024/02/14 03:38:49;;;;;;;6.15;3.70;;;;;;;8.68;100.00;101359.94;5073765;28;20017;-39
2024/02/14 03:41:15;;;;;;;4.20;3.30;;;;;;;8.67;100.00;101359.13;5073353;28;20024;-39
2024/02/14 03:43:40;;;;;;;6.70;3.20;;;;;;;8.71;100.00;101346.06;5077508;28;20064;-40
2024/02/14 03:46:06;;;;;;;6.00;3.80;;;;;;;8.71;100.00;101354.97;5077145;28;20471;-40
2024/02/14 03:48:31;;;;;;;3.73;3.30;;;;;;;8.71;100.00;101367.63;5076613;28;20533;-40
2024/02/14 03:50:57;;;;;;;5.73;3.37;;;;;;;8.73;100.00;101366.38;5076544;28;20044;-40
2024/02/14 03:53:23;;;;;;;6.13;4.05;;;;;;;8.73;100.00;101370.94;5076791;28;20035;-40
2024/02/14 03:55:49;;;;;;;6.93;3.60;;;;;;;8.74;100.00;101369.94;5077222;28;20045;-40
2024/02/14 03:58:16;;;;;;;;;;;;;;;8.79;100.00;101374.69;5077141;28;20115;-40
2024/02/14 04:00:43;;;;;;;8.10;4.13;;;;;;;8.74;100.00;101369.94;5076617;28;20334;-40
2024/02/14 04:03:12;;;;;;;8.85;3.97;;;;;;;8.68;100.00;101351.84;5076872;28;20075;-40
2024/02/14 04:05:37;;;;;;;4.45;3.35;;;;;;;8.75;100.00;101360.78;5076253;28;20032;-40
2024/02/14 04:08:03;;;;;;;5.30;3.90;;;;;;;8.78;100.00;101368.44;5076298;28;20029;-40
2024/02/14 04:10:29;;;;;;;5.38;3.90;;;;;;;8.81;100.00;101372.63;5076173;28;20035;-40
2024/02/14 04:12:54;;;;;;;5.32;3.42;;;;;;;8.79;100.00;101367.44;5076170;28;20024;-40
2024/02/14 04:15:20;;;;;;;7.23;3.97;;;;;;;8.83;100.00;101374.06;5075815;28;20024;-40
2024/02/14 04:17:45;;;;;;;5.43;3.53;;;;;;;8.84;100.00;101375.75;5076350;28;20592;-40
2024/02/14 04:20:10;;;;;;;7.13;4.63;;;;;;;8.84;100.00;101375.75;5076417;28;20444;-40
2024/02/14 04:22:36;;;;;;;5.53;3.35;;;;;;;8.87;100.00;101371.78;5075768;28;20393;-40
2024/02/14 04:25:01;;;;;;;6.67;4.00;;;;;;;8.88;100.00;101386.91;5076493;28;20035;-39
2024/02/14 04:27:27;;;;;;;5.40;3.90;;;;;;;8.89;100.00;101378.66;5075902;28;20456;-40
2024/02/14 04:29:53;;;;;;;6.07;3.25;;;;;;;8.91;100.00;101379.25;5076459;28;20463;-40
2024/02/14 04:32:19;;;;;;;4.40;3.30;;;;;;;8.84;100.00;101383.00;5075756;28;20118;-40
2024/02/14 04:34:45;;;;;;;4.93;3.25;;;;;;;8.90;100.00;101398.34;5076403;28;20029;-39
2024/02/14 04:37:13;;;;;;;4.30;3.38;;;;;;;8.91;100.00;101398.13;5076132;28;20032;-40
2024/02/14 04:39:39;;;;;;;6.53;3.85;;;;;;;8.90;100.00;101390.25;5076068;28;20025;-40
2024/02/14 04:42:04;;;;;;;5.30;3.58;;;;;;;8.89;100.00;101392.13;5075580;28;20379;-40
2024/02/14 04:44:34;;;;;;;3.92;3.42;;;;;;;8.91;100.00;101395.44;5075239;28;20111;-40
2024/02/14 04:47:00;;;;;;;3.85;3.40;;;;;;;8.92;100.00;101398.97;5075437;28;20369;-40
2024/02/14 04:49:26;;;;;;;4.82;3.25;;;;;;;8.91;100.00;101395.44;5076050;28;20070;-40
2024/02/14 04:51:52;;;;;;;4.97;3.63;;;;;;;8.91;100.00;101384.66;5075554;28;20376;-38
2024/02/14 04:54:18;;;;;;;5.03;3.70;;;;;;;8.94;100.00;101392.34;5075349;28;20454;-39
2024/02/14 04:56:45;;;;;;;4.32;3.55;;;;;;;8.94;100.00;101396.91;5075610;28;20029;-40
2024/02/14 04:59:10;;;;;;;6.72;3.92;;;;;;;8.99;100.00;101407.91;5075849;28;20025;-39
2024/02/14 05:01:36;;;;;;;4.28;3.35;;;;;;;8.99;100.00;101397.13;5075212;28;20086;-40
2024/02/14 05:04:01;;;;;;;5.50;3.63;;;;;;;8.94;100.00;101400.44;5075189;28;20028;-39
2024/02/14 05:06:27;;;;;;;4.93;3.80;;;;;;;8.87;100.00;101374.47;5075045;28;20028;-39
2024/02/14 05:08:53;;;;;;;6.07;4.00;;;;;;;9.00;100.00;101396.06;5075838;28;20020;-40
2024/02/14 05:11:19;;;;;;;6.18;4.00;;;;;;;9.01;100.00;101411.22;5074943;28;20029;-40
2024/02/14 05:13:44;;;;;;;6.43;4.00;;;;;;;9.02;100.00;101402.06;5075269;28;20033;-39
2024/02/14 05:16:10;;;;;;;5.22;3.78;;;;;;;9.01;100.00;101405.81;5074616;28;20028;-39
2024/02/14 05:18:39;;;;;;;6.85;3.90;;;;;;;8.95;100.00;101394.00;5074858;28;20016;-39
2024/02/14 05:21:08;;;;;;;6.28;4.00;;;;;;;9.01;100.00;101409.34;5074807;28;20028;-40
2024/02/14 05:23:34;;;;;;;4.90;3.92;;;;;;;9.01;100.00;101420.13;5075579;28;20498;-40
2024/02/14 05:26:01;;;;;;;6.07;3.78;;;;;;;9.00;100.00;101409.56;5074407;28;20428;-40
2024/02/14 05:28:28;;;;;;;6.07;4.32;;;;;;;8.99;100.00;101414.13;5074426;28;20045;-40
2024/02/14 05:30:53;;;;;;;;;;;;;;;9.03;100.00;101412.69;5075030;28;20017;-40
2024/02/14 05:33:21;;;;;;;8.77;4.30;;;;;;;8.86;100.00;101392.53;5074825;28;19908;-40
2024/02/14 05:35:48;;;;;;;6.80;4.53;;;;;;;8.97;100.00;101410.78;5074362;28;20301;-40
2024/02/14 05:38:13;;;;;;;6.20;4.55;;;;;;;8.98;100.00;101408.94;5074764;28;20020;-40
2024/02/14 05:40:39;;;;;;;6.87;5.10;;;;;;;8.92;100.00;101402.50;5074131;28;20036;-40
2024/02/14 05:43:04;;;;;;;;;;;;;;;9.01;100.00;101409.34;5075118;28;20111;-40
2024/02/14 05:45:30;;;;;;;5.32;4.50;;;;;;;8.91;100.00;101400.84;5074393;28;19944;-40
2024/02/14 05:47:55;;;;;;;7.67;4.43;;;;;;;8.96;100.00;101413.69;5056448;28;20028;-40
2024/02/14 05:50:20;;;;;;;6.60;4.70;;;;;;;8.92;100.00;101412.44;5090775;28;20032;-40
2024/02/14 05:52:46;;;;;;;5.73;3.90;;;;;;;8.98;100.00;101420.56;5074177;28;20090;-40
2024/02/14 05:55:11;;;;;;;5.00;4.33;;;;;;;8.97;100.00;101413.50;5074521;28;20115;-40
2024/02/14 05:57:37;;;;;;;5.77;4.27;;;;;;;8.97;100.00;101423.44;5074395;28;20464;-40
2024/02/14 06:00:03;;;;;;;6.13;4.32;;;;;;;8.93;100.00;101409.56;5074672;28;20460;-40
2024/02/14 06:02:28;;;;;;;5.10;4.18;;;;;;;8.90;100.00;101404.56;5073923;28;20111;-40
2024/02/14 06:04:54;;;;;;;6.40;4.90;;;;;;;8.90;100.00;101401.06;5073578;28;20116;-39
2024/02/14 06:07:19;;;;;;;6.53;5.00;;;;;;;8.96;100.00;101422.63;5074218;28;20424;-40
2024/02/14 06:09:45;;;;;;;7.30;4.77;;;;;;;8.97;100.00;101418.88;5073876;28;20117;-40
2024/02/14 06:12:10;;;;;;;;;;;;;;;8.98;100.00;101417.88;5074155;28;20039;-40
2024/02/14 06:14:36;;;;;;;6.25;4.97;;;;;;;8.96;100.00;101428.00;5074636;28;19912;-40
2024/02/14 06:17:02;;;;;;;5.95;5.35;;;;;;;8.97;100.00;101426.97;5073782;28;20112;-40
2024/02/14 06:19:27;;;;;;;7.25;5.55;;;;;;;8.90;100.00;101420.75;5074098;28;20361;-40
2024/02/14 06:21:53;;;;;;;7.15;5.28;;;;;;;8.96;100.00;101449.59;5074515;28;20055;-40
2024/02/14 06:24:19;;;;;;;7.13;5.93;;;;;;;8.89;100.00;101440.69;5074507;28;20103;-40
2024/02/14 06:26:47;;;;;;;7.18;5.13;;;;;;;8.93;100.00;101443.78;5073426;28;20024;-40
2024/02/14 06:29:12;;;;;;;8.85;6.35;;;;;;;8.98;100.00;101438.63;5073696;28;20029;-40
2024/02/14 06:31:38;;;;;;;6.55;5.70;;;;;;;8.98;100.00;101455.63;5073272;28;20496;-40
2024/02/14 06:34:03;;;;;;;6.53;5.75;;;;;;;8.98;100.00;101455.63;5073863;28;20103;-39
2024/02/14 06:36:28;;;;;;;7.10;5.90;;;;;;;8.93;100.00;101452.72;5073510;28;20024;-40
2024/02/14 06:38:54;;;;;;;7.63;6.50;;;;;;;9.00;100.00;101464.34;5073568;28;20262;-39
2024/02/14 06:41:20;;;;;;;10.00;6.77;;;;;;;9.01;100.00;101457.91;5073492;28;20094;-40
2024/02/14 06:43:45;;;;;;;7.70;6.78;;;;;;;9.06;100.00;101475.34;5073439;28;20267;-39
2024/02/14 06:46:11;;;;;;;8.25;7.20;;;;;;;8.99;100.00;101454.59;5073659;28;20082;-40
2024/02/14 06:48:36;;;;;;;8.60;7.53;;;;;;;9.06;100.00;101476.16;5073807;28;20464;-40
2024/02/14 06:51:01;;;;;;;9.87;6.80;;;;;;;9.05;100.00;101466.44;5073385;28;20279;-40
2024/02/14 06:53:27;;;;;;;7.07;6.30;;;;;;;9.09;100.00;101464.16;5073721;28;20067;-40
2024/02/14 06:55:52;;;;;;;9.60;6.88;;;;;;;9.10;100.00;101463.94;5074289;28;20071;-40
2024/02/14 06:58:18;;;;;;;10.27;7.00;;;;;;;9.11;100.00;101465.59;5073875;28;20448;-40
2024/02/14 07:00:44;;;;;;;8.07;7.15;;;;;;;9.13;100.00;101474.31;5073615;28;20111;-40
2024/02/14 07:03:09;;;;;;;;;;;;;;;9.16;100.00;101475.78;5073463;28;20033;-40
2024/02/14 07:05:35;;;;;;;8.68;5.82;;;;;;;9.14;100.00;101481.38;5073573;28;19919;-40
2024/02/14 07:08:01;;;;;;;9.00;6.70;;;;;;;9.10;100.00;101468.50;5073321;28;20438;-40
2024/02/14 07:10:26;;;;;;;;;;;;;;;9.20;100.00;101479.72;5074516;28;20025;-40
2024/02/14 07:12:52;;;;;;;11.00;7.00;;;;;;;9.13;100.00;101478.91;5074023;28;19912;-40
2024/02/14 07:15:17;;;;;;;8.80;6.47;;;;;;;9.16;100.00;101495.47;5073161;28;20108;-40
2024/02/14 07:17:42;;;;;;;8.53;6.20;;;;;;;9.18;100.00;101484.50;5076370;28;20025;-40
2024/02/14 07:20:09;;;;;;;8.37;6.60;;;;;;;9.18;100.00;101487.22;5077577;28;20345;-40
2024/02/14 07:22:35;;;;;;;10.82;6.88;;;;;;;9.19;100.00;101488.84;5077069;28;20281;-40
2024/02/14 07:25:00;;;;;;;;;;;;;;;9.23;100.00;101495.50;5077597;28;20036;-41
2024/02/14 07:27:26;;;;;;;7.63;6.82;;;;;;;9.14;100.00;101481.38;5076699;28;19943;-39
2024/02/14 07:29:52;;;;;;;;;;;;;;;9.24;100.00;101480.97;5078287;28;20064;-40
2024/02/14 07:32:17;;;;;;;9.25;7.20;;;;;;;9.21;100.00;101492.16;5076966;28;19915;-40
2024/02/14 07:34:43;;;;;;;11.85;7.60;;;;;;;9.20;100.00;101490.50;5077134;28;20083;-39
2024/02/14 07:37:09;;;;;;;10.77;7.32;;;;;;;9.20;100.00;101480.56;5076736;28;20056;-40
2024/02/14 07:39:34;;;;;;;9.77;7.53;;;;;;;9.12;100.00;101479.91;5077291;28;20036;-39
2024/02/14 07:42:00;;;;;;;10.70;7.35;;;;;;;9.10;100.00;101480.13;5076606;28;20369;-39
2024/02/14 07:44:26;;;;;;;;;;;;;;;9.23;100.00;101490.13;5077134;28;20391;-40
2024/02/14 07:46:52;;;;;;;9.10;7.53;;;;;;;9.20;100.00;101491.34;5076992;28;19912;-40
2024/02/14 07:49:17;;;;;;;12.52;8.07;;;;;;;9.21;100.00;101490.28;5077401;28;20764;-40
2024/02/14 07:51:42;;;;;;;11.32;7.82;;;;;;;9.17;100.00;101489.03;5076255;28;20021;-39
2024/02/14 07:54:08;;;;;;;13.45;8.45;;;;;;;9.20;100.00;101493.22;5076567;28;20032;-39
2024/02/14 07:56:33;;;;;;;10.67;7.80;;;;;;;9.23;100.00;101500.91;5076353;28;20067;-40
2024/02/14 07:58:59;;;;;;;11.87;8.40;;;;;;;9.23;100.00;101499.03;5077312;28;20032;-39
2024/02/14 08:01:25;;;;;;;14.25;8.82;;;;;;;9.26;100.00;101495.06;5076646;28;20274;-40
2024/02/14 08:03:50;;;;;;;12.95;7.75;;;;;;;9.27;100.00;101497.59;5076391;28;20430;-40
2024/02/14 08:06:16;;;;;;;12.35;8.00;;;;;;;9.22;100.00;101488.44;5076064;28;20036;-40
2024/02/14 08:08:41;;;;;;;10.80;7.70;;;;;;;9.18;100.00;101481.81;5076853;28;20134;-39
2024/02/14 08:11:07;;;;;;;11.80;7.53;;;;;;;9.32;100.00;101502.38;5076017;28;20028;-40
2024/02/14 08:13:32;;;;;;;10.43;7.65;;;;;;;9.33;100.00;101511.31;5076713;28;20312;-40
2024/02/14 08:15:58;;;;;;;10.53;7.80;;;;;;;9.28;100.00;101503.81;5076633;28;20392;-40
2024/02/14 08:18:24;;;;;;;10.02;7.70;;;;;;;9.34;100.00;101516.47;5076662;28;20297;-40
2024/02/14 08:20:49;;;;;;;12.93;8.30;;;;;;;9.32;100.00;101505.06;5075708;28;20024;-40
2024/02/14 08:23:15;;;;;;;12.17;7.67;;;;;;;9.35;100.00;101523.53;5076562;28;20064;-39
2024/02/14 08:25:43;;;;;;;15.27;8.38;;;;;;;9.33;100.00;101508.59;5075979;28;20032;-40
2024/02/14 08:28:09;;;;;;;11.52;7.85;;;;;;;9.37;100.00;101502.59;5075147;28;20110;-40
2024/02/14 08:30:34;;;;;;;10.20;8.38;;;;;;;9.38;100.00;101509.63;5075659;28;20032;-39
2024/02/14 08:33:00;;;;;;;9.60;7.23;;;;;;;9.39;100.00;101524.78;5076317;28;20028;-40
2024/02/14 08:35:25;;;;;;;11.77;7.83;;;;;;;9.40;100.00;101517.53;5075868;28;20097;-40
2024/02/14 08:37:50;;;;;;;9.47;7.13;;;;;;;9.43;100.00;101522.53;5075495;28;20262;-40
2024/02/14 08:40:16;;;;;;;11.43;7.57;;;;;;;9.30;100.00;101501.72;5076585;28;20100;-40
2024/02/14 08:42:41;;;;;;;9.93;7.67;;;;;;;9.44;100.00;101524.16;5075387;28;20036;-40
2024/02/14 08:45:08;;;;;;;11.97;7.27;;;;;;;9.45;100.00;101523.97;5075341;28;20476;-40
2024/02/14 08:47:33;;;;;;;12.52;7.82;;;;;;;9.42;100.00;101527.09;5075526;28;20772;-39
2024/02/14 08:49:59;;;;;;;11.83;7.60;;;;;;;9.46;100.00;101528.31;5075339;28;20028;-40
2024/02/14 08:52:25;;;;;;;12.52;7.90;;;;;;;9.40;100.00;101507.56;5075725;28;20464;-40
2024/02/14 08:54:51;;;;;;;10.05;7.88;;;;;;;9.49;100.00;101522.50;5075338;28;20080;-39
2024/02/14 08:57:18;;;;;;;13.32;7.63;;;;;;;9.51;100.00;101530.38;5075725;28;20055;-39
2024/02/14 08:59:46;;;;;;;10.32;7.18;;;;;;;9.53;100.00;101526.47;5075576;28;20028;-39
2024/02/14 09:02:13;;;;;;;12.57;7.32;;;;;;;9.57;100.00;101523.34;5075183;28;20035;-39
2024/02/14 09:04:38;;;;;;;;;;;;;;;9.63;100.00;101531.44;5076230;28;20369;-40
2024/02/14 09:07:04;;;;;;;10.20;6.97;;;;;;;9.62;100.00;101529.78;5075574;28;19912;-40
2024/02/14 09:09:29;;;;;;;9.50;7.43;;;;;;;9.66;100.00;101532.88;5075166;28;20108;-40
2024/02/14 09:11:55;;;;;;;15.10;7.23;;;;;;;9.65;100.00;101526.66;5075069;28;20036;-39
2024/02/14 09:14:20;;;;;;;11.35;7.22;;;;;;;9.74;100.00;101538.91;5074786;28;20342;-39
2024/02/14 09:16:46;;;;;;;11.35;7.00;;;;;;;9.78;100.00;101539.34;5074965;28;20059;-40
2024/02/14 09:19:12;;;;;;;10.70;6.80;;;;;;;9.75;100.00;101537.88;5075201;28;20036;-40
2024/02/14 09:21:38;;;;;;;10.25;6.57;;;;;;;9.84;100.00;101560.09;5075093;28;20055;-40
2024/02/14 09:24:04;;;;;;;;;;;;;;;9.93;100.00;101548.03;5075264;28;20067;-40
2024/02/14 09:26:29;;;;;;;7.97;5.63;;;;;;;9.86;100.00;101549.06;5074721;28;19912;-39
2024/02/14 09:28:56;;;;;;;9.17;5.60;;;;;;;9.91;100.00;101557.41;5074765;28;20107;-40
2024/02/14 09:31:21;;;;;;;;;;;;;;;10.01;100.00;101558.66;5075063;28;20070;-40
2024/02/14 09:33:49;;;;;;;7.05;5.75;;;;;;;9.96;100.00;101561.16;5074701;28;19908;-39
2024/02/14 09:36:15;;;;;;;10.48;5.80;;;;;;;9.98;100.00;101560.94;5074414;28;20471;-39
2024/02/14 09:38:42;;;;;;;8.82;5.85;;;;;;;9.99;100.00;101563.41;5073502;28;20032;-39
2024/02/14 09:41:33;;;;;;;7.53;5.10;;;;;;;10.01;100.00;101555.94;5074317;28;20111;-40
2024/02/14 09:43:59;;;;;;;8.73;5.90;;;;;;;10.01;100.00;101555.94;5074907;28;20495;-39
2024/02/14 09:46:27;;;;;;;10.43;5.68;;;;;;;10.04;100.00;101555.50;5074656;28;20032;-40
2024/02/14 09:48:54;;;;;;;8.45;5.85;;;;;;;10.10;100.00;101563.81;5074359;28;20028;-39
2024/02/14 09:51:20;;;;;;;9.98;5.70;;;;;;;10.14;100.00;101565.06;5073976;28;20032;-40
2024/02/14 09:53:46;;;;;;;7.18;5.60;;;;;;;10.20;100.00;101562.38;5074792;28;20141;-40
2024/02/14 09:56:13;;;;;;;9.77;5.47;;;;;;;10.21;100.00;101555.09;5075029;28;20045;-40
2024/02/14 09:58:40;;;;;;;7.93;5.45;;;;;;;10.25;100.00;101559.06;5074471;28;20391;-40
2024/02/14 10:01:06;;;;;;;11.45;5.72;;;;;;;10.26;100.00;101564.25;5074095;28;20047;-40
2024/02/14 10:03:31;;;;;;;;;;;;;;;10.34;100.00;101576.69;5074806;28;20106;-40
2024/02/14 10:05:57;;;;;;;10.63;6.18;;;;;;;10.07;100.00;101533.47;5074054;28;19986;-39
2024/02/14 10:08:23;;;;;;;6.90;5.22;;;;;;;10.28;100.00;101564.03;5074545;28;20024;-39
2024/02/14 10:10:49;;;;;;;6.63;5.38;;;;;;;10.26;100.00;101560.72;5073673;28;20021;-40
2024/02/14 10:13:16;;;;;;;8.93;5.95;;;;;;;10.28;100.00;101569.44;5073955;28;20035;-40
2024/02/14 10:15:41;;;;;;;;;;;;;;;10.31;100.00;101571.72;5073932;28;20037;-40
2024/02/14 10:18:09;;;;;;;8.47;5.43;;;;;;;10.28;100.00;101567.56;5074636;28;20018;-40
2024/02/14 10:20:40;;;;;;;7.22;5.78;;;;;;;10.27;100.00;101574.00;5074522;28;20336;-39
2024/02/14 10:23:06;;;;;;;7.70;5.78;;;;;;;10.23;100.00;101567.31;5074052;28;20380;-40
2024/02/14 10:25:34;;;;;;;9.98;5.95;;;;;;;10.29;100.00;101581.91;5073764;28;20032;-40
2024/02/14 10:28:08;;;;;;;9.50;6.05;;;;;;;10.30;100.00;101579.00;5074458;28;20406;-39
2024/02/14 10:30:41;;;;;;;8.75;5.80;;;;;;;10.31;100.00;101582.53;5074116;28;20121;-39
2024/02/14 10:33:07;;;;;;;10.32;5.72;;;;;;;10.31;100.00;101587.94;5073633;28;20020;-40
2024/02/14 10:35:36;;;;;;;8.77;5.40;;;;;;;10.34;100.00;101587.50;5074053;28;20028;-40
2024/02/14 10:38:02;;;;;;;7.38;5.32;;;;;;;10.36;100.00;101590.84;5073243;28;20503;-40
2024/02/14 10:40:28;;;;;;;6.72;5.43;;;;;;;10.39;100.00;101593.09;5073541;28;20502;-40
2024/02/14 10:42:55;;;;;;;7.72;5.80;;;;;;;10.40;100.00;101594.78;5073435;28;20024;-39
2024/02/14 10:45:20;;;;;;;8.57;5.50;;;;;;;10.42;100.00;101586.47;5073253;28;20490;-40
2024/02/14 10:47:48;;;;;;;9.43;5.70;;;;;;;10.43;100.00;101590.81;5073152;28;20036;-40
2024/02/14 10:50:15;;;;;;;8.60;5.88;;;;;;;10.46;100.00;101591.22;5073291;28;20265;-40
2024/02/14 10:52:41;;;;;;;9.10;5.38;;;;;;;10.48;100.00;101588.31;5073174;28;20029;-40
2024/02/14 10:55:09;;;;;;;9.15;5.53;;;;;;;10.53;100.00;101583.91;5073272;28;20476;-40
2024/02/14 10:57:35;;;;;;;7.28;5.18;;;;;;;10.53;100.00;101592.03;5073706;28;20074;-40
2024/02/14 11:00:05;;;;;;;8.30;5.75;;;;;;;10.55;100.00;101586.44;5074237;28;20028;-41
2024/02/14 11:02:32;;;;;;;8.80;5.15;;;;;;;10.57;100.00;101595.16;5073655;28;20111;-39
2024/02/14 11:04:57;;;;;;;6.50;5.32;;;;;;;10.54;100.00;101584.75;5073298;28;20115;-40
2024/02/14 11:07:23;;;;;;;7.97;5.47;;;;;;;10.55;100.00;101584.56;5073255;28;20112;-40
2024/02/14 11:10:00;;;;;;;5.85;4.95;;;;;;;10.53;100.00;101578.50;5073615;28;20086;-40
2024/02/14 11:12:25;;;;;;;7.40;5.20;;;;;;;10.57;100.00;101585.16;5073227;28;20028;-40
2024/02/14 11:14:52;;;;;;;7.33;4.90;;;;;;;10.61;100.00;101571.22;5073981;28;20115;-40
2024/02/14 11:17:24;;;;;;;6.07;4.85;;;;;;;10.62;100.00;101573.69;5073155;28;20062;-40
2024/02/14 11:19:51;;;;;;;5.97;4.93;;;;;;;10.55;100.00;101554.81;5072922;28;20043;-40
2024/02/14 11:22:21;;;;;;;6.60;4.90;;;;;;;10.46;100.00;101545.25;5073088;28;20032;-40